createdAt,value
2023-04-14T00:00:48.596Z,2238.00
2023-04-14T00:01:48.622Z,2240.00
2023-04-14T00:02:48.760Z,2237.00
2023-04-14T00:03:48.831Z,2235.00
2023-04-14T00:04:48.830Z,2235.00
2023-04-14T00:05:48.724Z,2233.00
2023-04-14T00:06:48.734Z,2229.00
2023-04-14T00:07:48.768Z,2226.00
2023-04-14T00:08:48.796Z,2226.00
2023-04-14T00:09:48.833Z,2225.00
2023-04-14T00:10:48.872Z,2227.00
2023-04-14T00:11:48.956Z,2223.00
2023-04-14T00:12:48.923Z,2223.00
2023-04-14T00:13:48.953Z,2221.00
2023-04-14T00:14:49.001Z,2222.00
2023-04-14T00:15:49.020Z,2219.00
2023-04-14T00:16:49.098Z,2214.00
2023-04-14T00:17:49.122Z,2214.00
2023-04-14T00:18:49.151Z,2214.00
2023-04-14T00:19:49.136Z,2215.00
2023-04-14T00:20:49.163Z,2214.00
2023-04-14T00:21:49.195Z,2214.00
2023-04-14T00:22:49.206Z,2211.00
2023-04-14T00:23:49.229Z,2205.00
2023-04-14T00:24:49.262Z,2207.00
2023-04-14T00:25:49.315Z,2205.00
2023-04-14T00:26:49.319Z,2205.00
2023-04-14T00:27:49.368Z,2203.00
2023-04-14T00:28:49.378Z,2200.00
2023-04-14T00:29:49.409Z,2197.00
2023-04-14T00:30:49.483Z,2193.00
2023-04-14T00:31:49.461Z,2192.00
2023-04-14T00:32:49.541Z,2193.00
2023-04-14T00:33:49.524Z,2193.00
2023-04-14T00:34:49.546Z,2194.00
2023-04-14T00:35:49.587Z,2195.00
2023-04-14T00:36:49.601Z,2198.00
2023-04-14T00:37:49.669Z,2196.00
2023-04-14T00:38:49.678Z,2196.00
2023-04-14T00:39:49.715Z,2197.00
2023-04-14T00:40:49.742Z,2193.00
2023-04-14T00:41:49.728Z,2192.00
2023-04-14T00:42:49.712Z,2194.00
2023-04-14T00:43:49.698Z,2193.00
2023-04-14T00:44:49.693Z,2192.00
2023-04-14T00:45:49.676Z,2191.00
2023-04-14T00:46:49.693Z,2189.00
2023-04-14T00:47:49.694Z,2184.00
2023-04-14T00:48:49.621Z,2181.00
2023-04-14T00:49:49.621Z,2177.00
2023-04-14T00:50:49.609Z,2173.00
2023-04-14T00:51:49.589Z,2171.00
2023-04-14T00:52:49.591Z,2171.00
2023-04-14T00:53:49.607Z,2168.00
2023-04-14T00:54:49.652Z,2169.00
2023-04-14T00:55:49.673Z,2166.00
2023-04-14T00:56:49.700Z,2166.00
2023-04-14T00:57:49.731Z,2169.00
2023-04-14T00:58:49.769Z,2163.00
2023-04-14T00:59:49.796Z,2158.00
2023-04-14T01:00:49.826Z,2157.00
2023-04-14T01:01:49.922Z,2155.00
2023-04-14T01:02:50.070Z,2151.00
2023-04-14T01:03:50.056Z,2150.00
2023-04-14T01:04:54.330Z,2151.00
2023-04-14T01:05:50.951Z,2152.00
2023-04-14T01:06:49.945Z,2149.00
2023-04-14T01:07:49.927Z,2148.00
2023-04-14T01:08:49.917Z,2148.00
2023-04-14T01:09:49.912Z,2147.00
2023-04-14T01:10:49.912Z,2145.00
2023-04-14T01:11:49.900Z,2148.00
2023-04-14T01:12:49.895Z,2146.00
2023-04-14T01:13:49.890Z,2141.00
2023-04-14T01:14:49.875Z,2141.00
2023-04-14T01:15:49.909Z,2138.00
2023-04-14T01:16:49.860Z,2135.00
2023-04-14T01:17:49.996Z,2132.00
2023-04-14T01:18:49.930Z,2128.00
2023-04-14T01:19:49.996Z,2132.00
2023-04-14T01:20:49.995Z,2132.00
2023-04-14T01:21:50.040Z,2136.00
2023-04-14T01:22:50.082Z,2135.00
2023-04-14T01:23:50.125Z,2134.00
2023-04-14T01:24:50.179Z,2133.00
2023-04-14T01:25:50.191Z,2134.00
2023-04-14T01:26:50.232Z,2130.00
2023-04-14T01:27:50.259Z,2129.00
2023-04-14T01:28:50.321Z,2129.00
2023-04-14T01:29:50.396Z,2128.00
2023-04-14T01:30:50.381Z,2128.00
2023-04-14T01:31:50.512Z,2125.00
2023-04-14T01:32:50.455Z,2122.00
2023-04-14T01:33:50.470Z,2123.00
2023-04-14T01:34:50.526Z,2124.00
2023-04-14T01:35:50.527Z,2124.00
2023-04-14T01:36:50.549Z,2119.00
2023-04-14T01:37:50.593Z,2119.00
2023-04-14T01:38:50.623Z,2117.00
2023-04-14T01:39:50.644Z,2122.00
2023-04-14T01:40:50.689Z,2123.00
2023-04-14T01:41:50.700Z,2120.00
2023-04-14T01:42:50.791Z,2122.00
2023-04-14T01:43:50.751Z,2122.00
2023-04-14T01:44:50.783Z,2119.00
2023-04-14T01:45:50.834Z,2119.00
2023-04-14T01:46:50.818Z,2119.00
2023-04-14T01:47:50.940Z,2115.00
2023-04-14T01:48:50.866Z,2118.00
2023-04-14T01:49:50.877Z,2118.00
2023-04-14T01:50:50.906Z,2118.00
2023-04-14T01:51:50.921Z,2118.00
2023-04-14T01:52:50.931Z,2115.00
2023-04-14T01:53:50.986Z,2112.00
2023-04-14T01:54:50.961Z,2108.00
2023-04-14T01:55:50.981Z,2109.00
2023-04-14T01:56:50.995Z,2108.00
2023-04-14T01:57:51.009Z,2103.00
2023-04-14T01:58:51.026Z,2103.00
2023-04-14T01:59:51.034Z,2101.00
2023-04-14T02:00:51.066Z,2099.00
2023-04-14T02:01:51.180Z,2098.00
2023-04-14T02:02:51.315Z,2098.00
2023-04-14T02:03:51.203Z,2099.00
2023-04-14T02:04:51.109Z,2098.00
2023-04-14T02:05:51.123Z,2096.00
2023-04-14T02:06:51.137Z,2094.00
2023-04-14T02:07:51.165Z,2088.00
2023-04-14T02:08:51.176Z,2087.00
2023-04-14T02:09:51.202Z,2088.00
2023-04-14T02:10:51.221Z,2089.00
2023-04-14T02:11:51.231Z,2086.00
2023-04-14T02:12:51.257Z,2085.00
2023-04-14T02:13:51.263Z,2083.00
2023-04-14T02:14:51.288Z,2082.00
2023-04-14T02:15:51.309Z,2082.00
2023-04-14T02:16:51.356Z,2078.00
2023-04-14T02:17:51.379Z,2079.00
2023-04-14T02:18:51.351Z,2075.00
2023-04-14T02:19:51.372Z,2074.00
2023-04-14T02:20:51.391Z,2074.00
2023-04-14T02:21:51.410Z,2069.00
2023-04-14T02:22:51.422Z,2071.00
2023-04-14T02:23:51.447Z,2072.00
2023-04-14T02:24:51.467Z,2068.00
2023-04-14T02:25:51.477Z,2066.00
2023-04-14T02:26:51.494Z,2059.00
2023-04-14T02:27:51.510Z,2058.00
2023-04-14T02:28:51.520Z,2060.00
2023-04-14T02:29:51.535Z,2062.00
2023-04-14T02:30:51.622Z,2068.00
2023-04-14T02:31:51.583Z,2069.00
2023-04-14T02:32:51.666Z,2067.00
2023-04-14T02:33:51.615Z,2065.00
2023-04-14T02:34:51.632Z,2060.00
2023-04-14T02:35:51.642Z,2059.00
2023-04-14T02:36:51.658Z,2059.00
2023-04-14T02:37:51.687Z,2059.00
2023-04-14T02:38:51.707Z,2061.00
2023-04-14T02:39:51.723Z,2059.00
2023-04-14T02:40:51.735Z,2061.00
2023-04-14T02:41:51.695Z,2060.00
2023-04-14T02:42:51.687Z,2056.00
2023-04-14T02:43:51.682Z,2056.00
2023-04-14T02:44:51.685Z,2054.00
2023-04-14T02:45:51.660Z,2051.00
2023-04-14T02:46:52.629Z,2047.00
2023-04-14T02:47:51.656Z,2044.00
2023-04-14T02:48:51.614Z,2049.00
2023-04-14T02:49:51.600Z,2050.00
2023-04-14T02:50:51.582Z,2050.00
2023-04-14T02:51:51.564Z,2046.00
2023-04-14T02:52:51.553Z,2043.00
2023-04-14T02:53:51.544Z,2040.00
2023-04-14T02:54:51.535Z,2041.00
2023-04-14T02:55:51.514Z,2043.00
2023-04-14T02:56:51.520Z,2043.00
2023-04-14T02:57:51.478Z,2043.00
2023-04-14T02:58:51.483Z,2042.00
2023-04-14T02:59:51.490Z,2043.00
2023-04-14T03:00:51.509Z,2039.00
2023-04-14T03:01:51.584Z,2039.00
2023-04-14T03:02:51.615Z,2037.00
2023-04-14T03:03:51.592Z,2033.00
2023-04-14T03:04:51.576Z,2035.00
2023-04-14T03:05:51.597Z,2033.00
2023-04-14T03:06:51.611Z,2031.00
2023-04-14T03:07:51.629Z,2028.00
2023-04-14T03:08:51.646Z,2027.00
2023-04-14T03:09:51.665Z,2023.00
2023-04-14T03:10:51.707Z,2023.00
2023-04-14T03:11:51.688Z,2023.00
2023-04-14T03:12:51.698Z,2020.00
2023-04-14T03:13:52.649Z,2017.00
2023-04-14T03:14:51.744Z,2016.00
2023-04-14T03:15:51.767Z,2015.00
2023-04-14T03:16:53.492Z,2012.00
2023-04-14T03:17:51.836Z,2014.00
2023-04-14T03:18:51.813Z,2014.00
2023-04-14T03:19:51.828Z,2014.00
2023-04-14T03:20:51.920Z,2014.00
2023-04-14T03:21:51.861Z,2010.00
2023-04-14T03:22:51.874Z,2010.00
2023-04-14T03:23:51.897Z,2010.00
2023-04-14T03:24:51.917Z,2013.00
2023-04-14T03:25:51.928Z,2012.00
2023-04-14T03:26:51.946Z,2015.00
2023-04-14T03:27:51.959Z,2015.00
2023-04-14T03:28:51.973Z,2016.00
2023-04-14T03:29:51.990Z,2014.00
2023-04-14T03:30:52.009Z,2013.00
2023-04-14T03:31:52.715Z,2015.00
2023-04-14T03:32:52.120Z,2016.00
2023-04-14T03:33:52.103Z,2014.00
2023-04-14T03:34:52.114Z,2013.00
2023-04-14T03:35:52.133Z,2011.00
2023-04-14T03:36:52.152Z,2011.00
2023-04-14T03:37:52.175Z,2008.00
2023-04-14T03:38:52.204Z,2008.00
2023-04-14T03:39:52.247Z,2010.00
2023-04-14T03:40:52.259Z,2006.00
2023-04-14T03:41:52.282Z,2009.00
2023-04-14T03:42:52.319Z,2006.00
2023-04-14T03:43:52.340Z,2003.00
2023-04-14T03:44:52.371Z,2002.00
2023-04-14T03:45:52.407Z,2003.00
2023-04-14T03:46:52.473Z,2000.00
2023-04-14T03:47:52.487Z,1996.00
2023-04-14T03:48:52.462Z,1995.00
2023-04-14T03:49:52.497Z,1992.00
2023-04-14T03:50:52.520Z,1993.00
2023-04-14T03:51:52.547Z,1993.00
2023-04-14T03:52:52.575Z,1990.00
2023-04-14T03:53:52.611Z,1985.00
2023-04-14T03:54:52.635Z,1981.00
2023-04-14T03:55:52.647Z,1981.00
2023-04-14T03:56:52.679Z,1983.00
2023-04-14T03:57:52.719Z,1987.00
2023-04-14T03:58:52.731Z,1983.00
2023-04-14T03:59:52.766Z,1979.00
2023-04-14T04:00:52.794Z,1976.00
2023-04-14T04:01:52.888Z,1977.00
2023-04-14T04:02:53.085Z,1978.00
2023-04-14T04:03:53.001Z,1978.00
2023-04-14T04:04:52.898Z,1980.00
2023-04-14T04:05:52.804Z,1982.00
2023-04-14T04:06:52.799Z,1980.00
2023-04-14T04:07:52.807Z,1979.00
2023-04-14T04:08:52.799Z,1975.00
2023-04-14T04:09:52.802Z,1974.00
2023-04-14T04:10:52.810Z,1975.00
2023-04-14T04:11:52.811Z,1974.00
2023-04-14T04:12:52.834Z,1976.00
2023-04-14T04:13:52.805Z,1974.00
2023-04-14T04:14:52.805Z,1972.00
2023-04-14T04:15:52.839Z,1971.00
2023-04-14T04:16:52.879Z,1967.00
2023-04-14T04:17:52.868Z,1962.00
2023-04-14T04:18:52.807Z,1961.00
2023-04-14T04:19:52.791Z,1960.00
2023-04-14T04:20:52.801Z,1961.00
2023-04-14T04:21:52.804Z,1959.00
2023-04-14T04:22:52.797Z,1960.00
2023-04-14T04:23:52.809Z,1960.00
2023-04-14T04:24:52.827Z,1958.00
2023-04-14T04:25:52.832Z,1961.00
2023-04-14T04:26:52.847Z,1961.00
2023-04-14T04:27:52.888Z,1958.00
2023-04-14T04:28:52.893Z,1954.00
2023-04-14T04:29:52.916Z,1955.00
2023-04-14T04:30:52.944Z,1957.00
2023-04-14T04:31:55.126Z,1956.00
2023-04-14T04:32:53.080Z,1955.00
2023-04-14T04:33:52.997Z,1950.00
2023-04-14T04:34:53.017Z,1949.00
2023-04-14T04:35:53.045Z,1949.00
2023-04-14T04:36:53.055Z,1947.00
2023-04-14T04:37:53.081Z,1946.00
2023-04-14T04:38:53.094Z,1944.00
2023-04-14T04:39:53.141Z,1940.00
2023-04-14T04:40:53.143Z,1937.00
2023-04-14T04:41:53.165Z,1939.00
2023-04-14T04:42:53.189Z,1938.00
2023-04-14T04:43:53.209Z,1941.00
2023-04-14T04:44:53.226Z,1942.00
2023-04-14T04:45:53.292Z,1941.00
2023-04-14T04:46:53.279Z,1939.00
2023-04-14T04:47:53.345Z,1936.00
2023-04-14T04:48:53.300Z,1932.00
2023-04-14T04:49:53.316Z,1933.00
2023-04-14T04:50:53.363Z,1933.00
2023-04-14T04:51:53.353Z,1933.00
2023-04-14T04:52:53.387Z,1931.00
2023-04-14T04:53:53.406Z,1929.00
2023-04-14T04:54:53.439Z,1923.00
2023-04-14T04:55:53.451Z,1918.00
2023-04-14T04:56:53.464Z,1918.00
2023-04-14T04:57:53.493Z,1915.00
2023-04-14T04:58:53.517Z,1913.00
2023-04-14T04:59:53.525Z,1915.00
2023-04-14T05:00:53.543Z,1915.00
2023-04-14T05:01:53.619Z,1915.00
2023-04-14T05:02:53.664Z,1916.00
2023-04-14T05:03:53.809Z,1915.00
2023-04-14T05:04:53.714Z,1916.00
2023-04-14T05:05:53.661Z,1917.00
2023-04-14T05:06:53.687Z,1915.00
2023-04-14T05:07:53.737Z,1912.00
2023-04-14T05:08:53.730Z,1912.00
2023-04-14T05:09:53.755Z,1912.00
2023-04-14T05:10:53.773Z,1913.00
2023-04-14T05:11:53.793Z,1912.00
2023-04-14T05:12:53.809Z,1911.00
2023-04-14T05:13:53.840Z,1909.00
2023-04-14T05:14:53.848Z,1910.00
2023-04-14T05:15:53.916Z,1908.00
2023-04-14T05:16:53.903Z,1906.00
2023-04-14T05:17:53.965Z,1904.00
2023-04-14T05:18:53.953Z,1907.00
2023-04-14T05:19:53.977Z,1905.00
2023-04-14T05:20:53.994Z,1905.00
2023-04-14T05:21:54.014Z,1904.00
2023-04-14T05:22:54.039Z,1890.00
2023-04-14T05:23:54.108Z,1867.00
2023-04-14T05:24:54.094Z,1872.00
2023-04-14T05:25:54.151Z,1879.00
2023-04-14T05:27:11.598Z,1883.00
2023-04-14T05:27:55.151Z,1897.00
2023-04-14T05:28:54.163Z,1830.00
2023-04-14T05:29:54.170Z,1865.00
2023-04-14T05:30:54.173Z,1894.00
2023-04-14T05:31:54.159Z,1907.00
2023-04-14T05:32:54.237Z,1905.00
2023-04-14T05:33:54.163Z,1900.00
2023-04-14T05:34:54.155Z,1900.00
2023-04-14T05:35:54.146Z,1902.00
2023-04-14T05:36:54.148Z,1908.00
2023-04-14T05:37:54.155Z,1910.00
2023-04-14T05:38:54.158Z,1910.00
2023-04-14T05:39:54.196Z,1911.00
2023-04-14T05:40:54.158Z,1912.00
2023-04-14T05:41:54.172Z,1908.00
2023-04-14T05:42:55.398Z,1907.00
2023-04-14T05:43:54.151Z,1906.00
2023-04-14T05:44:54.159Z,1903.00
2023-04-14T05:45:54.155Z,1906.00
2023-04-14T05:46:54.196Z,1906.00
2023-04-14T05:47:54.195Z,1900.00
2023-04-14T05:48:54.157Z,1901.00
2023-04-14T05:49:54.157Z,1900.00
2023-04-14T05:50:54.166Z,1898.00
2023-04-14T05:51:54.154Z,1898.00
2023-04-14T05:52:54.145Z,1900.00
2023-04-14T05:53:54.147Z,1899.00
2023-04-14T05:54:54.141Z,1896.00
2023-04-14T05:55:54.145Z,1899.00
2023-04-14T05:56:54.151Z,1898.00
2023-04-14T05:57:54.136Z,1895.00
2023-04-14T05:58:54.155Z,1895.00
2023-04-14T05:59:54.748Z,1891.00
2023-04-14T06:00:54.125Z,1892.00
2023-04-14T06:01:54.219Z,1891.00
2023-04-14T06:02:54.272Z,1890.00
2023-04-14T06:03:54.430Z,1890.00
2023-04-14T06:04:54.171Z,1882.00
2023-04-14T06:05:54.121Z,1880.00
2023-04-14T06:06:54.117Z,1878.00
2023-04-14T06:07:54.134Z,1879.00
2023-04-14T06:08:54.225Z,1879.00
2023-04-14T06:09:54.289Z,1878.00
2023-04-14T06:10:54.139Z,1871.00
2023-04-14T06:11:54.133Z,1867.00
2023-04-14T06:12:54.126Z,1868.00
2023-04-14T06:13:54.124Z,1873.00
2023-04-14T06:14:54.130Z,1871.00
2023-04-14T06:15:54.124Z,1868.00
2023-04-14T06:16:54.191Z,1867.00
2023-04-14T06:17:54.171Z,1860.00
2023-04-14T06:18:54.131Z,1858.00
2023-04-14T06:19:54.112Z,1858.00
2023-04-14T06:20:54.116Z,1863.00
2023-04-14T06:21:54.117Z,1864.00
2023-04-14T06:22:54.126Z,1865.00
2023-04-14T06:23:54.129Z,1864.00
2023-04-14T06:24:54.119Z,1862.00
2023-04-14T06:25:54.137Z,1865.00
2023-04-14T06:26:54.131Z,1865.00
2023-04-14T06:27:54.620Z,1864.00
2023-04-14T06:28:54.138Z,1870.00
2023-04-14T06:29:54.138Z,1986.00
2023-04-14T06:30:54.137Z,2011.00
2023-04-14T06:31:54.176Z,2034.00
2023-04-14T06:32:54.477Z,2064.00
2023-04-14T06:33:54.135Z,2060.00
2023-04-14T06:34:54.703Z,2055.00
2023-04-14T06:35:54.153Z,2047.00
2023-04-14T06:36:54.103Z,2058.00
2023-04-14T06:37:54.103Z,2076.00
2023-04-14T06:38:55.106Z,2100.00
2023-04-14T06:39:54.727Z,2130.00
2023-04-14T06:40:54.082Z,2152.00
2023-04-14T06:41:54.056Z,2174.00
2023-04-14T06:42:54.833Z,2236.00
2023-04-14T06:43:54.111Z,2271.00
2023-04-14T06:44:55.076Z,2286.00
2023-04-14T06:45:54.081Z,2306.00
2023-04-14T06:46:55.312Z,2326.00
2023-04-14T06:47:54.143Z,2355.00
2023-04-14T06:48:54.058Z,2390.00
2023-04-14T06:49:54.702Z,2417.00
2023-04-14T06:50:54.725Z,2442.00
2023-04-14T06:51:54.109Z,2475.00
2023-04-14T06:52:54.269Z,2532.00
2023-04-14T06:53:54.193Z,2569.00
2023-04-14T06:54:54.244Z,2595.00
2023-04-14T06:55:54.250Z,2620.00
2023-04-14T06:56:54.281Z,2646.00
2023-04-14T06:57:54.266Z,2670.00
2023-04-14T06:58:54.377Z,2699.00
2023-04-14T06:59:55.240Z,2747.00
2023-04-14T07:00:54.408Z,2773.00
2023-04-14T07:01:54.649Z,2795.00
2023-04-14T07:02:54.550Z,2809.00
2023-04-14T07:03:54.505Z,2841.00
2023-04-14T07:04:54.652Z,2896.00
2023-04-14T07:05:55.133Z,2907.00
2023-04-14T07:06:54.643Z,2928.00
2023-04-14T07:07:54.674Z,2986.00
2023-04-14T07:08:54.731Z,3002.00
2023-04-14T07:09:54.810Z,3027.00
2023-04-14T07:10:54.809Z,3041.00
2023-04-14T07:11:54.839Z,3077.00
2023-04-14T07:12:54.874Z,3122.00
2023-04-14T07:14:05.832Z,3158.00
2023-04-14T07:14:54.894Z,3187.00
2023-04-14T07:15:55.775Z,3220.00
2023-04-14T07:16:55.725Z,3250.00
2023-04-14T07:17:54.929Z,3294.00
2023-04-14T07:18:54.831Z,3330.00
2023-04-14T07:19:54.817Z,2889.00
2023-04-14T07:20:55.717Z,1708.00
2023-04-14T07:21:54.806Z,1370.00
2023-04-14T07:22:54.824Z,1794.00
2023-04-14T07:23:54.825Z,2595.00
2023-04-14T07:24:54.827Z,2413.00
2023-04-14T07:25:54.825Z,2096.00
2023-04-14T07:26:54.827Z,2022.00
2023-04-14T07:28:03.045Z,2091.00
2023-04-14T07:28:55.811Z,2112.00
2023-04-14T07:29:54.822Z,2119.00
2023-04-14T07:30:54.846Z,2132.00
2023-04-14T07:31:55.802Z,2149.00
2023-04-14T07:32:54.868Z,2157.00
2023-04-14T07:33:54.777Z,2169.00
2023-04-14T07:34:55.264Z,2182.00
2023-04-14T07:36:02.934Z,2192.00
2023-04-14T07:36:55.746Z,2213.00
2023-04-14T07:37:54.721Z,2231.00
2023-04-14T07:38:54.733Z,2248.00
2023-04-14T07:39:55.231Z,2263.00
2023-04-14T07:40:55.217Z,2282.00
2023-04-14T07:41:59.241Z,2298.00
2023-04-14T07:42:54.664Z,2324.00
2023-04-14T07:43:54.647Z,2341.00
2023-04-14T07:44:54.654Z,2362.00
2023-04-14T07:45:54.650Z,2371.00
2023-04-14T07:46:56.240Z,2383.00
2023-04-14T07:47:57.117Z,2400.00
2023-04-14T07:48:54.606Z,2417.00
2023-04-14T07:49:54.621Z,2436.00
2023-04-14T07:50:55.230Z,2461.00
2023-04-14T07:51:54.602Z,2490.00
2023-04-14T07:52:55.235Z,2509.00
2023-04-14T07:53:54.579Z,2525.00
2023-04-14T07:54:54.576Z,2540.00
2023-04-14T07:55:54.752Z,2575.00
2023-04-14T07:56:55.231Z,2589.00
2023-04-14T07:57:55.751Z,2606.00
2023-04-14T07:58:54.774Z,2625.00
2023-04-14T07:59:55.722Z,2650.00
2023-04-14T08:00:54.859Z,2665.00
2023-04-14T08:01:54.976Z,2682.00
2023-04-14T08:02:55.058Z,2700.00
2023-04-14T08:03:57.098Z,2717.00
2023-04-14T08:04:54.997Z,2735.00
2023-04-14T08:05:55.234Z,2756.00
2023-04-14T08:06:55.058Z,2782.00
2023-04-14T08:07:55.732Z,2802.00
2023-04-14T08:08:55.144Z,2826.00
2023-04-14T08:09:55.169Z,2844.00
2023-04-14T08:10:55.865Z,2862.00
2023-04-14T08:11:55.250Z,2858.00
2023-04-14T08:12:55.309Z,2866.00
2023-04-14T08:13:55.342Z,2871.00
2023-04-14T08:14:55.520Z,2866.00
2023-04-14T08:15:55.506Z,2870.00
2023-04-14T08:16:55.494Z,2853.00
2023-04-14T08:17:55.573Z,2809.00
2023-04-14T08:18:56.512Z,2451.00
2023-04-14T08:19:55.485Z,2202.00
2023-04-14T08:20:55.520Z,1960.00
2023-04-14T08:21:55.561Z,1900.00
2023-04-14T08:23:00.312Z,1801.00
2023-04-14T08:23:55.508Z,1786.00
2023-04-14T08:24:55.741Z,1548.00
2023-04-14T08:25:57.268Z,1575.00
2023-04-14T08:26:57.229Z,1661.00
2023-04-14T08:27:55.551Z,1686.00
2023-04-14T08:28:58.284Z,1733.00
2023-04-14T08:29:55.529Z,1824.00
2023-04-14T08:30:55.542Z,1853.00
2023-04-14T08:31:55.597Z,1875.00
2023-04-14T08:32:58.945Z,1905.00
2023-04-14T08:33:56.202Z,1942.00
2023-04-14T08:35:36.923Z,1983.00
2023-04-14T08:35:58.676Z,2011.00
2023-04-14T08:36:55.521Z,2037.00
2023-04-14T08:37:57.254Z,2064.00
2023-04-14T08:38:55.465Z,2094.00
2023-04-14T08:39:55.460Z,2123.00
2023-04-14T08:41:03.152Z,2143.00
2023-04-14T08:41:55.432Z,2181.00
2023-04-14T08:42:55.422Z,2221.00
2023-04-14T08:43:55.410Z,2239.00
2023-04-14T08:44:57.279Z,2260.00
2023-04-14T08:45:55.581Z,2293.00
2023-04-14T08:46:55.363Z,2329.00
2023-04-14T08:47:55.366Z,2365.00
2023-04-14T08:48:56.429Z,2386.00
2023-04-14T08:49:55.316Z,2413.00
2023-04-14T08:50:55.339Z,2435.00
2023-04-14T08:51:56.300Z,2470.00
2023-04-14T08:52:55.284Z,2532.00
2023-04-14T08:53:55.265Z,2559.00
2023-04-14T08:54:55.260Z,2580.00
2023-04-14T08:55:57.493Z,2605.00
2023-04-14T08:56:55.744Z,2638.00
2023-04-14T08:57:55.207Z,2683.00
2023-04-14T08:58:55.742Z,2709.00
2023-04-14T08:59:55.196Z,2732.00
2023-04-14T09:00:55.215Z,2756.00
2023-04-14T09:01:55.281Z,2797.00
2023-04-14T09:02:56.861Z,2828.00
2023-04-14T09:03:55.307Z,2860.00
2023-04-14T09:04:55.404Z,2897.00
2023-04-14T09:05:55.095Z,2921.00
2023-04-14T09:06:55.075Z,2951.00
2023-04-14T09:07:55.066Z,2985.00
2023-04-14T09:08:55.077Z,3014.00
2023-04-14T09:09:55.666Z,3031.00
2023-04-14T09:10:55.025Z,3106.00
2023-04-14T09:11:55.017Z,3132.00
2023-04-14T09:12:54.997Z,3148.00
2023-04-14T09:13:55.030Z,3184.00
2023-04-14T09:14:56.784Z,3193.00
2023-04-14T09:15:55.059Z,3187.00
2023-04-14T09:16:55.102Z,3190.00
2023-04-14T09:17:55.159Z,3192.00
2023-04-14T09:18:55.084Z,3187.00
2023-04-14T09:20:35.394Z,3179.00
2023-04-14T09:21:30.009Z,3175.00
2023-04-14T09:21:56.071Z,3168.00
2023-04-14T09:22:55.038Z,3163.00
2023-04-14T09:23:55.037Z,3165.00
2023-04-14T09:24:55.000Z,3174.00
2023-04-14T09:26:00.681Z,3187.00
2023-04-14T09:26:54.989Z,3200.00
2023-04-14T09:27:55.748Z,3216.00
2023-04-14T09:28:58.927Z,3229.00
2023-04-14T09:29:55.241Z,3240.00
2023-04-14T09:30:55.265Z,3251.00
2023-04-14T09:31:55.211Z,3271.00
2023-04-14T09:32:55.786Z,3295.00
2023-04-14T09:33:55.858Z,3310.00
2023-04-14T09:34:57.755Z,3317.00
2023-04-14T09:36:02.679Z,3331.00
2023-04-14T09:36:55.164Z,3337.00
2023-04-14T09:37:56.679Z,3352.00
2023-04-14T09:38:57.180Z,3362.00
2023-04-14T09:39:57.674Z,3371.00
2023-04-14T09:40:59.271Z,3385.00
2023-04-14T09:41:55.242Z,3394.00
2023-04-14T09:42:55.270Z,3403.00
2023-04-14T09:43:57.777Z,3413.00
2023-04-14T09:44:55.448Z,3419.00
2023-04-14T09:45:56.305Z,3429.00
2023-04-14T09:46:56.814Z,3444.00
2023-04-14T09:47:56.277Z,3459.00
2023-04-14T09:48:55.791Z,3469.00
2023-04-14T09:49:55.527Z,3476.00
2023-04-14T09:50:55.571Z,3482.00
2023-04-14T09:51:56.257Z,3492.00
2023-04-14T09:52:56.470Z,3500.00
2023-04-14T09:53:56.314Z,3506.00
2023-04-14T09:54:55.587Z,3519.00
2023-04-14T09:55:55.775Z,3522.00
2023-04-14T09:56:55.486Z,3528.00
2023-04-14T09:57:56.261Z,3537.00
2023-04-14T09:58:56.279Z,3544.00
2023-04-14T09:59:56.181Z,3549.00
2023-04-14T10:00:55.408Z,3561.00
2023-04-14T10:01:55.657Z,3569.00
2023-04-14T10:02:55.466Z,3584.00
2023-04-14T10:03:56.493Z,3592.00
2023-04-14T10:05:00.269Z,3608.00
2023-04-14T10:05:56.262Z,3614.00
2023-04-14T10:06:55.332Z,3606.00
2023-04-14T10:07:56.263Z,3617.00
2023-04-14T10:08:55.302Z,3615.00
2023-04-14T10:09:55.283Z,3611.00
2023-04-14T10:10:55.283Z,3606.00
2023-04-14T10:11:55.253Z,3599.00
2023-04-14T10:12:55.420Z,3596.00
2023-04-14T10:13:55.227Z,3587.00
2023-04-14T10:14:55.208Z,3577.00
2023-04-14T10:15:55.227Z,3569.00
2023-04-14T10:16:55.353Z,3564.00
2023-04-14T10:17:55.198Z,3557.00
2023-04-14T10:18:55.776Z,3552.00
2023-04-14T10:19:55.152Z,3547.00
2023-04-14T10:20:55.140Z,3543.00
2023-04-14T10:21:55.135Z,3539.00
2023-04-14T10:22:55.142Z,3542.00
2023-04-14T10:23:55.143Z,3540.00
2023-04-14T10:24:55.154Z,3535.00
2023-04-14T10:25:55.160Z,3530.00
2023-04-14T10:26:55.225Z,3527.00
2023-04-14T10:27:55.270Z,3523.00
2023-04-14T10:28:55.236Z,3522.00
2023-04-14T10:29:55.253Z,3513.00
2023-04-14T10:30:56.266Z,3508.00
2023-04-14T10:31:55.349Z,3506.00
2023-04-14T10:32:55.361Z,3495.00
2023-04-14T10:33:55.329Z,3489.00
2023-04-14T10:34:55.340Z,3485.00
2023-04-14T10:35:55.384Z,3478.00
2023-04-14T10:36:55.406Z,3472.00
2023-04-14T10:37:55.445Z,3470.00
2023-04-14T10:38:55.413Z,3471.00
2023-04-14T10:39:55.409Z,3469.00
2023-04-14T10:40:55.382Z,3465.00
2023-04-14T10:41:55.371Z,3464.00
2023-04-14T10:42:55.359Z,3459.00
2023-04-14T10:43:55.344Z,3453.00
2023-04-14T10:44:55.314Z,3446.00
2023-04-14T10:45:55.298Z,3443.00
2023-04-14T10:46:55.301Z,3440.00
2023-04-14T10:47:55.306Z,3439.00
2023-04-14T10:48:55.259Z,3433.00
2023-04-14T10:49:55.229Z,3428.00
2023-04-14T10:50:55.236Z,3424.00
2023-04-14T10:51:55.201Z,3416.00
2023-04-14T10:52:55.182Z,3410.00
2023-04-14T10:53:55.221Z,3407.00
2023-04-14T10:54:55.256Z,3407.00
2023-04-14T10:55:55.283Z,3401.00
2023-04-14T10:56:55.306Z,3402.00
2023-04-14T10:57:55.351Z,3398.00
2023-04-14T10:58:55.398Z,3392.00
2023-04-14T10:59:55.410Z,3392.00
2023-04-14T11:00:55.498Z,3392.00
2023-04-14T11:01:55.552Z,3390.00
2023-04-14T11:02:55.656Z,3390.00
2023-04-14T11:03:55.814Z,3387.00
2023-04-14T11:04:55.581Z,3382.00
2023-04-14T11:05:55.616Z,3379.00
2023-04-14T11:06:55.687Z,3372.00
2023-04-14T11:07:56.288Z,3368.00
2023-04-14T11:08:55.722Z,3367.00
2023-04-14T11:09:55.789Z,3366.00
2023-04-14T11:10:55.782Z,3362.00
2023-04-14T11:11:55.818Z,3357.00
2023-04-14T11:12:56.793Z,3351.00
2023-04-14T11:13:55.766Z,3343.00
2023-04-14T11:14:55.750Z,3336.00
2023-04-14T11:15:56.736Z,3330.00
2023-04-14T11:17:03.779Z,3324.00
2023-04-14T11:17:57.300Z,3323.00
2023-04-14T11:18:55.701Z,3324.00
2023-04-14T11:19:55.706Z,3319.00
2023-04-14T11:20:55.705Z,3316.00
2023-04-14T11:21:55.674Z,3317.00
2023-04-14T11:22:55.665Z,3312.00
2023-04-14T11:23:55.682Z,3305.00
2023-04-14T11:24:55.643Z,3306.00
2023-04-14T11:25:55.645Z,3297.00
2023-04-14T11:26:55.620Z,3294.00
2023-04-14T11:27:55.620Z,3294.00
2023-04-14T11:28:55.609Z,3288.00
2023-04-14T11:29:55.599Z,3288.00
2023-04-14T11:30:55.813Z,3291.00
2023-04-14T11:31:55.684Z,3293.00
2023-04-14T11:32:55.710Z,3299.00
2023-04-14T11:33:55.732Z,3301.00
2023-04-14T11:34:55.741Z,3300.00
2023-04-14T11:35:55.729Z,3298.00
2023-04-14T11:36:55.725Z,3292.00
2023-04-14T11:37:55.719Z,3285.00
2023-04-14T11:38:55.724Z,3283.00
2023-04-14T11:39:55.709Z,3284.00
2023-04-14T11:40:55.730Z,3277.00
2023-04-14T11:41:55.712Z,3275.00
2023-04-14T11:42:55.709Z,3276.00
2023-04-14T11:43:55.683Z,3276.00
2023-04-14T11:44:55.677Z,3274.00
2023-04-14T11:45:55.703Z,3269.00
2023-04-14T11:46:55.669Z,3270.00
2023-04-14T11:47:55.787Z,3266.00
2023-04-14T11:48:55.756Z,3262.00
2023-04-14T11:49:55.804Z,3252.00
2023-04-14T11:50:55.851Z,3250.00
2023-04-14T11:51:55.898Z,3244.00
2023-04-14T11:52:55.939Z,3243.00
2023-04-14T11:53:55.991Z,3243.00
2023-04-14T11:54:56.101Z,3242.00
2023-04-14T11:55:56.078Z,3238.00
2023-04-14T11:56:56.126Z,3234.00
2023-04-14T11:57:56.177Z,3230.00
2023-04-14T11:58:56.222Z,3230.00
2023-04-14T11:59:56.267Z,3228.00
2023-04-14T12:00:56.583Z,3223.00
2023-04-14T12:01:56.381Z,3226.00
2023-04-14T12:02:56.707Z,3223.00
2023-04-14T12:03:56.516Z,3221.00
2023-04-14T12:04:56.701Z,3217.00
2023-04-14T12:05:56.538Z,3215.00